Time;durP1;ratioP1;P1;durP2;ratioP2;P2;SDS_P1;SDS_P2;PMS_P1;PMS_P2;Temp;Humidity;BMP_temperature;BMP_pressure;BME280_temperature;BME280_humidity;BME280_pressure;Samples;Min_cycle;Max_cycle;Signal;HPM_P1;HPM_P2
2022/03/21 16:45:49;;;;;;;;;;;9.70;61.50;;;;;;5080100;27;19917;-89
2022/03/21 16:48:15;;;;;;;;;;;9.40;62.70;;;;;;5119224;27;19913;-88
2022/03/21 16:50:41;;;;;;;;;;;9.40;63.70;;;;;;5086031;28;19912;-90
2022/03/21 16:53:07;;;;;;;;;;;9.40;64.60;;;;;;5086013;28;19962;-88
2022/03/21 16:55:33;;;;;;;;;;;9.50;65.20;;;;;;5086077;28;19951;-91
2022/03/21 16:57:58;;;;;;;;;;;9.50;65.60;;;;;;5085671;28;20006;-89
2022/03/21 17:00:24;;;;;;;;;;;9.60;65.80;;;;;;5086177;28;20353;-90
2022/03/21 17:02:50;;;;;;;;;;;9.60;66.00;;;;;;5118961;28;19920;-90
2022/03/21 17:05:16;;;;;;;;;;;9.60;66.20;;;;;;5088227;28;20380;-92
2022/03/21 17:07:46;;;;;;;;;;;9.60;66.30;;;;;;5088073;28;19912;-91
2022/03/21 17:10:13;;;;;;;;;;;9.70;66.40;;;;;;5090890;28;19913;-90
2022/03/21 17:12:40;;;;;;;;;;;9.70;66.40;;;;;;5090873;28;19908;-94
2022/03/21 17:15:05;;;;;;;;;;;9.60;66.50;;;;;;5091077;28;19913;-93
2022/03/21 17:17:31;;;;;;;;;;;9.60;66.60;;;;;;5085692;28;19913;-92
2022/03/21 17:25:25;;;;;;;52.35;48.42;;;9.60;66.70;;;;;;5090393;28;20031;-91
2022/03/21 17:27:51;;;;;;;;;;;9.60;66.70;;;;;;5075142;28;20033;-92
2022/03/21 17:30:19;;;;;;;;;;;9.50;66.70;;;;;;5116448;27;19908;-93
2022/03/21 17:32:45;;;;;;;;;;;9.50;66.70;;;;;;5082143;28;19965;-89
2022/03/21 17:35:11;;;;;;;;;;;9.50;66.80;;;;;;5080134;28;19991;-92
2022/03/21 17:37:36;;;;;;;;;;;9.50;66.90;;;;;;5090027;28;19916;-92
2022/03/21 17:40:03;;;;;;;;;;;9.40;66.90;;;;;;5085837;28;19916;-90
2022/03/21 17:42:29;;;;;;;;;;;9.40;67.10;;;;;;5086450;28;19985;-91
2022/03/21 17:44:57;;;;;;;;;;;9.30;67.20;;;;;;5087654;28;20007;-89
2022/03/21 17:47:24;;;;;;;;;;;9.30;67.30;;;;;;5089860;28;20010;-88
2022/03/21 17:49:50;;;;;;;;;;;9.30;67.30;;;;;;5086867;28;20003;-88
2022/03/21 17:52:16;;;;;;;;;;;9.30;67.40;;;;;;5088768;28;19908;-88
2022/03/21 17:54:42;;;;;;;;;;;9.20;67.60;;;;;;5088197;28;19908;-89
2022/03/21 17:57:10;;;;;;;;;;;9.20;67.60;;;;;;5096667;28;19913;-88
2022/03/21 17:59:36;;;;;;;;;;;9.20;67.70;;;;;;5067140;28;19908;-89
2022/03/21 18:02:01;;;;;;;;;;;9.10;67.70;;;;;;5074925;28;20371;-90
2022/03/21 18:04:27;;;;;;;;;;;9.10;67.80;;;;;;5103221;28;19958;-90
2022/03/21 18:06:53;;;;;;;;;;;9.00;68.00;;;;;;5073076;28;19915;-90
2022/03/21 18:09:19;;;;;;;;;;;9.00;68.10;;;;;;5076124;28;19908;-89
2022/03/21 18:11:47;;;;;;;;;;;9.00;68.30;;;;;;5077461;28;19968;-90
2022/03/21 18:14:13;;;;;;;;;;;9.00;68.40;;;;;;5068758;28;20426;-93
2022/03/21 18:16:39;;;;;;;;;;;9.00;68.50;;;;;;5069284;28;19990;-93
2022/03/21 18:21:56;;;;;;;;;;;8.90;68.80;;;;;;5063571;28;19931;-94
2022/03/21 18:24:27;;;;;;;;;;;8.90;68.80;;;;;;5077496;28;20414;-94
2022/03/21 18:26:53;;;;;;;;;;;8.90;68.80;;;;;;5066720;28;20378;-93
2022/03/21 18:29:18;;;;;;;;;;;8.90;68.90;;;;;;5067260;28;19908;-93
2022/03/21 18:31:44;;;;;;;;;;;8.90;69.00;;;;;;5099720;28;19914;-94
2022/03/21 18:34:10;;;;;;;;;;;8.80;69.00;;;;;;5087725;28;19912;-94
2022/03/21 18:36:36;;;;;;;;;;;8.80;69.10;;;;;;5084909;28;19915;-95
2022/03/21 18:39:02;;;;;;;;;;;8.80;69.40;;;;;;5076098;28;19909;-95
2022/03/21 18:41:28;;;;;;;;;;;8.80;69.50;;;;;;5075034;28;19973;-95
2022/03/21 18:43:56;;;;;;;;;;;8.80;69.40;;;;;;5116529;27;19963;-96
2022/03/21 18:46:21;;;;;;;;;;;8.80;69.50;;;;;;5122292;27;19930;-96
2022/03/21 18:48:47;;;;;;;;;;;8.80;69.50;;;;;;5079666;28;19908;-96
2022/03/21 18:51:15;;;;;;;;;;;8.80;69.60;;;;;;5076110;28;19912;-94
2022/03/21 18:53:42;;;;;;;;;;;8.80;69.70;;;;;;5083113;28;20284;-96
2022/03/21 18:56:11;;;;;;;;;;;8.70;69.80;;;;;;5425269;22;19920;-96
2022/03/21 19:04:36;;;;;;;;;;;8.70;70.10;;;;;;5049919;22;19921;-94
2022/03/21 19:07:27;;;;;;;;;;;8.70;70.30;;;;;;5018779;28;19909;-95
